Port Melbourne — V7JA2 — position and weather

sailwx.info

Track history (hours):
 
Tides and Currents Weather Stations Pressure Air Temp Water Temp Dewpoint Dewpoint Depression Visibility Wind Speed Wind Dir Waves Ship Positions

Port Melbourne

Last reported at 2014-Jul-15 13:26 UTC. Time now 2014-Jul-30 09:14 UTC.
Position N 35°32' W 124°14'.
Warning: this ship's position is 14 days out of date.

Length 190 m; draft 11.2 m.

Type: Cargo ship. MMSI: 538090191.

Date/timePositionNaut miles runAvg speedWind from/ knotsBaromVisibWave heightAir tempDewpointWater temp
2014-Jul-15 13:26N 35°32' W 124°14'910.3
2014-Jul-15 12:33N 35°27' W 124°04'1010.2
2014-Jul-15 11:33N 35°23' W 123°53'1110.3
2014-Jul-15 10:32N 35°17' W 123°43'1110.7
2014-Jul-15 09:33N 35°12' W 123°31'1110.8
2014-Jul-15 08:33N 35°07' W 123°20'1110.6
2014-Jul-15 07:33N 35°02' W 123°08'1210.3
2014-Jul-15 06:24N 34°57' W 122°55'910.6
2014-Jul-15 05:33N 34°52' W 122°46'1010.4
2014-Jul-15 04:33N 34°47' W 122°35'1210.2
2014-Jul-15 03:23N 34°42' W 122°22'910.4
2014-Jul-15 02:33N 34°38' W 122°12'1010.2
2014-Jul-15 01:32N 34°33' W 122°01'10 9.8
2014-Jul-15 00:32N 34°28' W 121°51'67 4.2
2014-Jul-14 08:33N 33°51' W 120°43'1 0.6
2014-Jul-14 06:32N 33°51' W 120°45'1 0.7
2014-Jul-14 05:30N 33°51' W 120°46'1 1.0
2014-Jul-14 04:21N 33°52' W 120°47'1 1.4
2014-Jul-14 03:33N 33°52' W 120°48'1 1.5
2014-Jul-14 02:33N 33°53' W 120°50'2 1.5
2014-Jul-14 01:33N 33°53' W 120°52'2 1.5
2014-Jul-14 00:12N 33°54' W 120°54'1 1.4
2014-Jul-13 23:08N 33°55' W 120°56'1 1.6
2014-Jul-13 22:15N 33°55' W 120°57'1 1.7
2014-Jul-13 21:33N 33°56' W 120°58'8 2.5
2014-Jul-13 18:27N 33°54' W 120°50'9 9.9
2014-Jul-13 17:31N 33°51' W 120°39'2010.0
2014-Jul-13 15:33N 33°46' W 120°16'1210.3
2014-Jul-13 14:25N 33°41' W 120°04'1011.0
2014-Jul-13 13:31N 33°37' W 119°53'1010.7
2014-Jul-13 12:33N 33°33' W 119°41'1211.1
2014-Jul-13 11:29N 33°34' W 119°27'1011.3
2014-Jul-13 10:33N 33°35' W 119°14'1211.4
2014-Jul-13 09:32N 33°38' W 119°01'1111.3
2014-Jul-13 08:33N 33°38' W 118°48'1111.0
2014-Jul-13 07:33N 33°38' W 118°34'1110.7
2014-Jul-13 06:33N 33°38' W 118°22'7 6.9
2014-Jul-13 05:33N 33°42' W 118°15'3 3.0
2014-Jul-13 04:27N 33°46' W 118°15'0 0.0
2014-Jul-13 03:33N 33°46' W 118°15'0 0.0
2014-Jul-13 02:33N 33°46' W 118°15'0 0.0
2014-Jul-13 01:33N 33°46' W 118°15'0 0.0
2014-Jul-13 00:33N 33°46' W 118°15'0 0.1
2014-Jul-12 23:33N 33°46' W 118°15'0 0.0
2014-Jul-12 22:33N 33°46' W 118°15'0 0.0
2014-Jul-12 21:33N 33°46' W 118°15'0 0.1
2014-Jul-12 20:33N 33°46' W 118°15'0 0.0
2014-Jul-12 19:27N 33°46' W 118°15'0 0.0
2014-Jul-12 18:33N 33°46' W 118°15'0 0.0
2014-Jul-12 17:33N 33°46' W 118°15'0 0.0
2014-Jul-12 16:15N 33°46' W 118°15'0 0.0
2014-Jul-12 15:30N 33°46' W 118°15'0 0.0
2014-Jul-12 14:09N 33°46' W 118°15'0 0.0
2014-Jul-12 13:27N 33°46' W 118°15'0 0.0
2014-Jul-12 12:33N 33°46' W 118°15'0 0.0
2014-Jul-12 10:15N 33°46' W 118°15'0 0.0
2014-Jul-12 06:33N 33°46' W 118°15'0 0.0
2014-Jul-11 23:08N 33°46' W 118°15'0 0.0
2014-Jul-11 22:32N 33°46' W 118°15'0 0.0
2014-Jul-11 21:26N 33°46' W 118°15'0 0.0
2014-Jul-11 16:26N 33°46' W 118°15'0 0.0
2014-Jul-11 03:26N 33°46' W 118°15'0 0.0
2014-Jul-11 02:20N 33°46' W 118°15'0 0.0
2014-Jul-11 01:32N 33°46' W 118°15'0 0.0
2014-Jul-11 00:32N 33°46' W 118°15'0 0.0
2014-Jul-10 23:29N 33°46' W 118°15'0 0.0
2014-Jul-10 22:32N 33°46' W 118°15'0 0.0
2014-Jul-10 07:19N 33°46' W 118°15'0 0.0
2014-Jul-10 03:13N 33°46' W 118°15'0 0.0
2014-Jul-10 02:31N 33°46' W 118°15'0 0.0
2014-Jul-10 01:19N 33°46' W 118°15'0 0.0
2014-Jul-10 00:31N 33°46' W 118°15'0 0.0
2014-Jul-09 23:31N 33°46' W 118°15'0 0.0
2014-Jul-09 22:31N 33°46' W 118°15'0 0.0
2014-Jul-09 21:19N 33°46' W 118°15'0 0.0
2014-Jul-09 20:31N 33°46' W 118°15'0 0.0
2014-Jul-09 19:22N 33°46' W 118°15'0 0.0
2014-Jul-09 18:22N 33°46' W 118°15'0 0.0
2014-Jul-09 17:31N 33°46' W 118°15'0 0.0
2014-Jul-09 15:22N 33°46' W 118°15'0 0.0
2014-Jul-09 14:28N 33°46' W 118°15'0 0.0
2014-Jul-09 13:19N 33°46' W 118°15'0 0.0
2014-Jul-09 12:31N 33°46' W 118°15'0 0.0
2014-Jul-09 11:31N 33°46' W 118°15'0 0.0
2014-Jul-09 10:31N 33°46' W 118°15'0 0.0
2014-Jul-09 09:33N 33°46' W 118°15'0 0.0
2014-Jul-09 08:21N 33°46' W 118°15'0 0.0
2014-Jul-09 07:30N 33°46' W 118°15'0 0.0
2014-Jul-09 06:21N 33°46' W 118°15'0 0.0
2014-Jul-09 05:27N 33°46' W 118°15'0 0.0
2014-Jul-09 04:33N 33°46' W 118°15'0 0.0
2014-Jul-09 03:27N 33°46' W 118°15'0 0.0
2014-Jul-09 02:33N 33°46' W 118°15'0 0.0
2014-Jul-09 01:33N 33°46' W 118°15'0 0.0
2014-Jul-09 00:33N 33°46' W 118°15'0 0.0
2014-Jul-08 23:33N 33°46' W 118°15'0 0.0
2014-Jul-08 22:33N 33°46' W 118°15'0 0.0
2014-Jul-08 21:24N 33°46' W 118°15'0 0.0
2014-Jul-08 20:15N 33°46' W 118°15'0 0.0
2014-Jul-08 19:33N 33°46' W 118°15'0 0.0
2014-Jul-08 13:18N 33°46' W 118°15'0 0.0
2014-Jul-08 12:33N 33°46' W 118°15'0 0.0
2014-Jul-08 11:27N 33°46' W 118°15'0 0.0
2014-Jul-08 10:09N 33°46' W 118°15'0 0.0
2014-Jul-08 09:30N 33°46' W 118°15'0 0.0
2014-Jul-08 08:24N 33°46' W 118°15'0 0.0
2014-Jul-08 07:30N 33°46' W 118°15'0 0.0
2014-Jul-08 06:21N 33°46' W 118°15'0 0.0
2014-Jul-08 05:30N 33°46' W 118°15'0 0.0
2014-Jul-08 04:33N 33°46' W 118°15'0 0.0
2014-Jul-08 03:33N 33°46' W 118°15'0 0.0
2014-Jul-08 02:33N 33°46' W 118°15'0 0.0
2014-Jul-08 01:33N 33°46' W 118°15'0 0.0
2014-Jul-08 00:33N 33°46' W 118°15'0 0.0
2014-Jul-07 23:33N 33°46' W 118°15'0 0.0
2014-Jul-07 22:32N 33°46' W 118°15'0 0.0
2014-Jul-07 21:32N 33°46' W 118°15'0 0.0
2014-Jul-07 20:32N 33°46' W 118°15'0 0.0
2014-Jul-07 19:32N 33°46' W 118°15'0 0.0
2014-Jul-07 18:32N 33°46' W 118°15'0 0.0
2014-Jul-07 17:32N 33°46' W 118°15'0 0.0
2014-Jul-07 16:32N 33°46' W 118°15'0 0.0
2014-Jul-07 15:26N 33°46' W 118°15'0 0.0
2014-Jul-07 13:33N 33°46' W 118°15'0 0.2
2014-Jul-07 12:34N 33°46' W 118°15'4 4.1
2014-Jul-07 11:33N 33°42' W 118°13'1 0.8
2014-Jul-07 10:31N 33°42' W 118°12'0 0.1
2014-Jul-07 09:31N 33°42' W 118°12'0 0.1
2014-Jul-07 08:28N 33°42' W 118°12'0 0.1
2014-Jul-07 07:28N 33°42' W 118°12'0 0.0
2014-Jul-07 06:31N 33°42' W 118°12'0 0.0
2014-Jul-07 05:28N 33°42' W 118°12'0 0.0
2014-Jul-07 04:31N 33°42' W 118°12'0 0.1
2014-Jul-07 03:31N 33°42' W 118°12'0 0.1
2014-Jul-07 02:31N 33°42' W 118°12'0 0.0
2014-Jul-07 01:31N 33°42' W 118°12'0 0.0
2014-Jul-07 00:31N 33°42' W 118°12'0 0.0
2014-Jul-06 23:31N 33°42' W 118°12'0 0.1
2014-Jul-06 22:31N 33°42' W 118°12'0 0.0
2014-Jul-06 21:31N 33°42' W 118°12'0 0.0
2014-Jul-06 20:31N 33°42' W 118°12'0 0.0
2014-Jul-06 19:31N 33°42' W 118°12'0 0.0
2014-Jul-06 18:31N 33°42' W 118°12'0 0.0
2014-Jul-06 17:31N 33°42' W 118°12'0 0.0
2014-Jul-06 16:31N 33°42' W 118°12'0 0.0
2014-Jul-06 15:31N 33°42' W 118°12'0 0.1
2014-Jul-06 14:31N 33°42' W 118°12'0 0.0
2014-Jul-06 13:31N 33°42' W 118°12'0 0.1
2014-Jul-06 12:31N 33°42' W 118°12'0 0.1
2014-Jul-06 11:31N 33°42' W 118°12'0 0.1
2014-Jul-06 10:31N 33°42' W 118°12'0 0.0
2014-Jul-06 09:28N 33°42' W 118°12'0 0.0
2014-Jul-06 08:31N 33°42' W 118°12'0 0.0
2014-Jul-06 07:31N 33°42' W 118°12'0 0.0
2014-Jul-06 06:31N 33°42' W 118°12'0 0.0
2014-Jul-06 05:31N 33°42' W 118°12'0 0.0
2014-Jul-06 04:31N 33°42' W 118°12'0 0.0
2014-Jul-06 03:31N 33°42' W 118°12'0 0.0
2014-Jul-06 02:31N 33°42' W 118°12'0 0.0
2014-Jul-06 01:34N 33°42' W 118°12'0 0.0
2014-Jul-06 00:33N 33°42' W 118°12'0 0.0
2014-Jul-05 23:33N 33°42' W 118°12'0 0.0
2014-Jul-05 22:30N 33°42' W 118°12'0 0.0
2014-Jul-05 21:33N 33°42' W 118°12'0 0.0
2014-Jul-05 20:33N 33°42' W 118°12'0 0.0
2014-Jul-05 19:33N 33°42' W 118°12'0 0.0
2014-Jul-05 18:33N 33°42' W 118°12'0 0.0
2014-Jul-05 17:33N 33°42' W 118°12'0 0.0
2014-Jul-05 16:33N 33°42' W 118°12'0 0.0
2014-Jul-05 15:33N 33°42' W 118°12'0 0.0
2014-Jul-05 14:33N 33°42' W 118°12'0 0.0
2014-Jul-05 13:33N 33°42' W 118°12'  
Track history (hours):
 
Tides and Currents Weather Stations Pressure Air Temp Water Temp Dewpoint Dewpoint Depression Visibility Wind Speed Wind Dir Waves Ship Positions

Port Melbourne

Last reported at 2014-Jul-15 13:26 UTC. Time now 2014-Jul-30 09:14 UTC.
Position N 35°32' W 124°14'.
Warning: this ship's position is 14 days out of date.

Length 190 m; draft 11.2 m.

Type: Cargo ship. MMSI: 538090191.

Date/timePositionNaut miles runAvg speedWind from/ knotsBaromVisibWave heightAir tempDewpointWater temp
2014-Jul-15 13:26N 35°32' W 124°14'910.3
2014-Jul-15 12:33N 35°27' W 124°04'1010.2
2014-Jul-15 11:33N 35°23' W 123°53'1110.3
2014-Jul-15 10:32N 35°17' W 123°43'1110.7
2014-Jul-15 09:33N 35°12' W 123°31'1110.8
2014-Jul-15 08:33N 35°07' W 123°20'1110.6
2014-Jul-15 07:33N 35°02' W 123°08'1210.3
2014-Jul-15 06:24N 34°57' W 122°55'910.6
2014-Jul-15 05:33N 34°52' W 122°46'1010.4
2014-Jul-15 04:33N 34°47' W 122°35'1210.2
2014-Jul-15 03:23N 34°42' W 122°22'910.4
2014-Jul-15 02:33N 34°38' W 122°12'1010.2
2014-Jul-15 01:32N 34°33' W 122°01'10 9.8
2014-Jul-15 00:32N 34°28' W 121°51'67 4.2
2014-Jul-14 08:33N 33°51' W 120°43'1 0.6
2014-Jul-14 06:32N 33°51' W 120°45'1 0.7
2014-Jul-14 05:30N 33°51' W 120°46'1 1.0
2014-Jul-14 04:21N 33°52' W 120°47'1 1.4
2014-Jul-14 03:33N 33°52' W 120°48'1 1.5
2014-Jul-14 02:33N 33°53' W 120°50'2 1.5
2014-Jul-14 01:33N 33°53' W 120°52'2 1.5
2014-Jul-14 00:12N 33°54' W 120°54'1 1.4
2014-Jul-13 23:08N 33°55' W 120°56'1 1.6
2014-Jul-13 22:15N 33°55' W 120°57'1 1.7
2014-Jul-13 21:33N 33°56' W 120°58'8 2.5
2014-Jul-13 18:27N 33°54' W 120°50'9 9.9
2014-Jul-13 17:31N 33°51' W 120°39'2010.0
2014-Jul-13 15:33N 33°46' W 120°16'1210.3
2014-Jul-13 14:25N 33°41' W 120°04'1011.0
2014-Jul-13 13:31N 33°37' W 119°53'1010.7
2014-Jul-13 12:33N 33°33' W 119°41'1211.1
2014-Jul-13 11:29N 33°34' W 119°27'1011.3
2014-Jul-13 10:33N 33°35' W 119°14'1211.4
2014-Jul-13 09:32N 33°38' W 119°01'1111.3
2014-Jul-13 08:33N 33°38' W 118°48'1111.0
2014-Jul-13 07:33N 33°38' W 118°34'1110.7
2014-Jul-13 06:33N 33°38' W 118°22'7 6.9
2014-Jul-13 05:33N 33°42' W 118°15'3 3.0
2014-Jul-13 04:27N 33°46' W 118°15'0 0.0
2014-Jul-13 03:33N 33°46' W 118°15'0 0.0
2014-Jul-13 02:33N 33°46' W 118°15'0 0.0
2014-Jul-13 01:33N 33°46' W 118°15'0 0.0
2014-Jul-13 00:33N 33°46' W 118°15'0 0.1
2014-Jul-12 23:33N 33°46' W 118°15'0 0.0
2014-Jul-12 22:33N 33°46' W 118°15'0 0.0
2014-Jul-12 21:33N 33°46' W 118°15'0 0.1
2014-Jul-12 20:33N 33°46' W 118°15'0 0.0
2014-Jul-12 19:27N 33°46' W 118°15'0 0.0
2014-Jul-12 18:33N 33°46' W 118°15'0 0.0
2014-Jul-12 17:33N 33°46' W 118°15'0 0.0
2014-Jul-12 16:15N 33°46' W 118°15'0 0.0
2014-Jul-12 15:30N 33°46' W 118°15'0 0.0
2014-Jul-12 14:09N 33°46' W 118°15'0 0.0
2014-Jul-12 13:27N 33°46' W 118°15'0 0.0
2014-Jul-12 12:33N 33°46' W 118°15'0 0.0
2014-Jul-12 10:15N 33°46' W 118°15'0 0.0
2014-Jul-12 06:33N 33°46' W 118°15'0 0.0
2014-Jul-11 23:08N 33°46' W 118°15'0 0.0
2014-Jul-11 22:32N 33°46' W 118°15'0 0.0
2014-Jul-11 21:26N 33°46' W 118°15'0 0.0
2014-Jul-11 16:26N 33°46' W 118°15'0 0.0
2014-Jul-11 03:26N 33°46' W 118°15'0 0.0
2014-Jul-11 02:20N 33°46' W 118°15'0 0.0
2014-Jul-11 01:32N 33°46' W 118°15'0 0.0
2014-Jul-11 00:32N 33°46' W 118°15'0 0.0
2014-Jul-10 23:29N 33°46' W 118°15'0 0.0
2014-Jul-10 22:32N 33°46' W 118°15'0 0.0
2014-Jul-10 07:19N 33°46' W 118°15'0 0.0
2014-Jul-10 03:13N 33°46' W 118°15'0 0.0
2014-Jul-10 02:31N 33°46' W 118°15'0 0.0
2014-Jul-10 01:19N 33°46' W 118°15'0 0.0
2014-Jul-10 00:31N 33°46' W 118°15'0 0.0
2014-Jul-09 23:31N 33°46' W 118°15'0 0.0
2014-Jul-09 22:31N 33°46' W 118°15'0 0.0
2014-Jul-09 21:19N 33°46' W 118°15'0 0.0
2014-Jul-09 20:31N 33°46' W 118°15'0 0.0
2014-Jul-09 19:22N 33°46' W 118°15'0 0.0
2014-Jul-09 18:22N 33°46' W 118°15'0 0.0
2014-Jul-09 17:31N 33°46' W 118°15'0 0.0
2014-Jul-09 15:22N 33°46' W 118°15'0 0.0
2014-Jul-09 14:28N 33°46' W 118°15'0 0.0
2014-Jul-09 13:19N 33°46' W 118°15'0 0.0
2014-Jul-09 12:31N 33°46' W 118°15'0 0.0
2014-Jul-09 11:31N 33°46' W 118°15'0 0.0
2014-Jul-09 10:31N 33°46' W 118°15'0 0.0
2014-Jul-09 09:33N 33°46' W 118°15'0 0.0
2014-Jul-09 08:21N 33°46' W 118°15'0 0.0
2014-Jul-09 07:30N 33°46' W 118°15'0 0.0
2014-Jul-09 06:21N 33°46' W 118°15'0 0.0
2014-Jul-09 05:27N 33°46' W 118°15'0 0.0
2014-Jul-09 04:33N 33°46' W 118°15'0 0.0
2014-Jul-09 03:27N 33°46' W 118°15'0 0.0
2014-Jul-09 02:33N 33°46' W 118°15'0 0.0
2014-Jul-09 01:33N 33°46' W 118°15'0 0.0
2014-Jul-09 00:33N 33°46' W 118°15'0 0.0
2014-Jul-08 23:33N 33°46' W 118°15'0 0.0
2014-Jul-08 22:33N 33°46' W 118°15'0 0.0
2014-Jul-08 21:24N 33°46' W 118°15'0 0.0
2014-Jul-08 20:15N 33°46' W 118°15'0 0.0
2014-Jul-08 19:33N 33°46' W 118°15'0 0.0
2014-Jul-08 13:18N 33°46' W 118°15'0 0.0
2014-Jul-08 12:33N 33°46' W 118°15'0 0.0
2014-Jul-08 11:27N 33°46' W 118°15'0 0.0
2014-Jul-08 10:09N 33°46' W 118°15'0 0.0
2014-Jul-08 09:30N 33°46' W 118°15'0 0.0
2014-Jul-08 08:24N 33°46' W 118°15'0 0.0
2014-Jul-08 07:30N 33°46' W 118°15'0 0.0
2014-Jul-08 06:21N 33°46' W 118°15'0 0.0
2014-Jul-08 05:30N 33°46' W 118°15'0 0.0
2014-Jul-08 04:33N 33°46' W 118°15'0 0.0
2014-Jul-08 03:33N 33°46' W 118°15'0 0.0
2014-Jul-08 02:33N 33°46' W 118°15'0 0.0
2014-Jul-08 01:33N 33°46' W 118°15'0 0.0
2014-Jul-08 00:33N 33°46' W 118°15'0 0.0
2014-Jul-07 23:33N 33°46' W 118°15'0 0.0
2014-Jul-07 22:32N 33°46' W 118°15'0 0.0
2014-Jul-07 21:32N 33°46' W 118°15'0 0.0
2014-Jul-07 20:32N 33°46' W 118°15'0 0.0
2014-Jul-07 19:32N 33°46' W 118°15'0 0.0
2014-Jul-07 18:32N 33°46' W 118°15'0 0.0
2014-Jul-07 17:32N 33°46' W 118°15'0 0.0
2014-Jul-07 16:32N 33°46' W 118°15'0 0.0
2014-Jul-07 15:26N 33°46' W 118°15'0 0.0
2014-Jul-07 13:33N 33°46' W 118°15'0 0.2
2014-Jul-07 12:34N 33°46' W 118°15'4 4.1
2014-Jul-07 11:33N 33°42' W 118°13'1 0.8
2014-Jul-07 10:31N 33°42' W 118°12'0 0.1
2014-Jul-07 09:31N 33°42' W 118°12'0 0.1
2014-Jul-07 08:28N 33°42' W 118°12'0 0.1
2014-Jul-07 07:28N 33°42' W 118°12'0 0.0
2014-Jul-07 06:31N 33°42' W 118°12'0 0.0
2014-Jul-07 05:28N 33°42' W 118°12'0 0.0
2014-Jul-07 04:31N 33°42' W 118°12'0 0.1
2014-Jul-07 03:31N 33°42' W 118°12'0 0.1
2014-Jul-07 02:31N 33°42' W 118°12'0 0.0
2014-Jul-07 01:31N 33°42' W 118°12'0 0.0
2014-Jul-07 00:31N 33°42' W 118°12'0 0.0
2014-Jul-06 23:31N 33°42' W 118°12'0 0.1
2014-Jul-06 22:31N 33°42' W 118°12'0 0.0
2014-Jul-06 21:31N 33°42' W 118°12'0 0.0
2014-Jul-06 20:31N 33°42' W 118°12'0 0.0
2014-Jul-06 19:31N 33°42' W 118°12'0 0.0
2014-Jul-06 18:31N 33°42' W 118°12'0 0.0
2014-Jul-06 17:31N 33°42' W 118°12'0 0.0
2014-Jul-06 16:31N 33°42' W 118°12'0 0.0
2014-Jul-06 15:31N 33°42' W 118°12'0 0.1
2014-Jul-06 14:31N 33°42' W 118°12'0 0.0
2014-Jul-06 13:31N 33°42' W 118°12'0 0.1
2014-Jul-06 12:31N 33°42' W 118°12'0 0.1
2014-Jul-06 11:31N 33°42' W 118°12'0 0.1
2014-Jul-06 10:31N 33°42' W 118°12'0 0.0
2014-Jul-06 09:28N 33°42' W 118°12'0 0.0
2014-Jul-06 08:31N 33°42' W 118°12'0 0.0
2014-Jul-06 07:31N 33°42' W 118°12'0 0.0
2014-Jul-06 06:31N 33°42' W 118°12'0 0.0
2014-Jul-06 05:31N 33°42' W 118°12'0 0.0
2014-Jul-06 04:31N 33°42' W 118°12'0 0.0
2014-Jul-06 03:31N 33°42' W 118°12'0 0.0
2014-Jul-06 02:31N 33°42' W 118°12'0 0.0
2014-Jul-06 01:34N 33°42' W 118°12'0 0.0
2014-Jul-06 00:33N 33°42' W 118°12'0 0.0
2014-Jul-05 23:33N 33°42' W 118°12'0 0.0
2014-Jul-05 22:30N 33°42' W 118°12'0 0.0
2014-Jul-05 21:33N 33°42' W 118°12'0 0.0
2014-Jul-05 20:33N 33°42' W 118°12'0 0.0
2014-Jul-05 19:33N 33°42' W 118°12'0 0.0
2014-Jul-05 18:33N 33°42' W 118°12'0 0.0
2014-Jul-05 17:33N 33°42' W 118°12'0 0.0
2014-Jul-05 16:33N 33°42' W 118°12'0 0.0
2014-Jul-05 15:33N 33°42' W 118°12'0 0.0
2014-Jul-05 14:33N 33°42' W 118°12'0 0.0
2014-Jul-05 13:33N 33°42' W 118°12'  

Dump ship's entire track history